sensor_id;sensor_type;location;lat;lon;timestamp;P1;durP1;ratioP1;P2;durP2;ratioP2
5225;SDS011;2632;51.666;7.146;2023-11-21T00:02:25;37.33;;;20.83;;
5225;SDS011;2632;51.666;7.146;2023-11-21T00:04:53;35.35;;;20.80;;
5225;SDS011;2632;51.666;7.146;2023-11-21T00:07:20;34.17;;;19.38;;
5225;SDS011;2632;51.666;7.146;2023-11-21T00:09:47;32.10;;;19.40;;
5225;SDS011;2632;51.666;7.146;2023-11-21T00:12:15;32.90;;;18.97;;
5225;SDS011;2632;51.666;7.146;2023-11-21T00:14:41;32.67;;;17.98;;
5225;SDS011;2632;51.666;7.146;2023-11-21T00:17:08;28.65;;;15.85;;
5225;SDS011;2632;51.666;7.146;2023-11-21T00:19:35;26.35;;;15.95;;
5225;SDS011;2632;51.666;7.146;2023-11-21T00:22:02;26.73;;;15.07;;
5225;SDS011;2632;51.666;7.146;2023-11-21T00:24:29;30.95;;;15.63;;
5225;SDS011;2632;51.666;7.146;2023-11-21T00:26:55;32.33;;;15.60;;
5225;SDS011;2632;51.666;7.146;2023-11-21T00:29:22;29.90;;;15.37;;
5225;SDS011;2632;51.666;7.146;2023-11-21T00:31:49;28.90;;;15.98;;
5225;SDS011;2632;51.666;7.146;2023-11-21T00:34:15;32.28;;;16.65;;
5225;SDS011;2632;51.666;7.146;2023-11-21T00:36:42;34.57;;;16.40;;
5225;SDS011;2632;51.666;7.146;2023-11-21T00:39:09;33.53;;;16.42;;
5225;SDS011;2632;51.666;7.146;2023-11-21T00:41:35;34.08;;;17.10;;
5225;SDS011;2632;51.666;7.146;2023-11-21T00:44:02;32.15;;;16.30;;
5225;SDS011;2632;51.666;7.146;2023-11-21T00:46:29;33.45;;;16.00;;
5225;SDS011;2632;51.666;7.146;2023-11-21T00:48:56;33.13;;;16.30;;
5225;SDS011;2632;51.666;7.146;2023-11-21T00:51:23;32.80;;;16.95;;
5225;SDS011;2632;51.666;7.146;2023-11-21T00:53:50;33.77;;;17.03;;
5225;SDS011;2632;51.666;7.146;2023-11-21T00:56:17;37.83;;;17.58;;
5225;SDS011;2632;51.666;7.146;2023-11-21T00:58:44;34.25;;;17.13;;
5225;SDS011;2632;51.666;7.146;2023-11-21T01:01:16;34.28;;;17.00;;
5225;SDS011;2632;51.666;7.146;2023-11-21T01:03:43;34.03;;;17.67;;
5225;SDS011;2632;51.666;7.146;2023-11-21T01:06:09;36.40;;;17.70;;
5225;SDS011;2632;51.666;7.146;2023-11-21T01:08:39;32.07;;;16.80;;
5225;SDS011;2632;51.666;7.146;2023-11-21T01:11:06;40.03;;;17.73;;
5225;SDS011;2632;51.666;7.146;2023-11-21T01:13:34;38.15;;;18.17;;
5225;SDS011;2632;51.666;7.146;2023-11-21T01:16:02;35.55;;;18.23;;
5225;SDS011;2632;51.666;7.146;2023-11-21T01:18:29;37.00;;;19.05;;
5225;SDS011;2632;51.666;7.146;2023-11-21T01:20:56;34.70;;;17.48;;
5225;SDS011;2632;51.666;7.146;2023-11-21T01:23:23;38.30;;;19.80;;
5225;SDS011;2632;51.666;7.146;2023-11-21T01:25:50;38.20;;;18.40;;
5225;SDS011;2632;51.666;7.146;2023-11-21T01:28:18;34.58;;;18.60;;
5225;SDS011;2632;51.666;7.146;2023-11-21T01:30:45;32.55;;;17.50;;
5225;SDS011;2632;51.666;7.146;2023-11-21T01:33:12;30.85;;;16.70;;
5225;SDS011;2632;51.666;7.146;2023-11-21T01:35:42;27.45;;;15.85;;
5225;SDS011;2632;51.666;7.146;2023-11-21T01:38:09;35.23;;;16.07;;
5225;SDS011;2632;51.666;7.146;2023-11-21T01:40:35;33.35;;;16.30;;
5225;SDS011;2632;51.666;7.146;2023-11-21T01:43:02;28.00;;;16.13;;
5225;SDS011;2632;51.666;7.146;2023-11-21T01:45:32;32.10;;;16.52;;
5225;SDS011;2632;51.666;7.146;2023-11-21T01:48:00;28.13;;;15.95;;
5225;SDS011;2632;51.666;7.146;2023-11-21T01:50:27;32.83;;;17.00;;
5225;SDS011;2632;51.666;7.146;2023-11-21T01:52:54;28.85;;;16.02;;
5225;SDS011;2632;51.666;7.146;2023-11-21T01:55:21;28.77;;;15.02;;
5225;SDS011;2632;51.666;7.146;2023-11-21T01:57:54;26.63;;;15.43;;
5225;SDS011;2632;51.666;7.146;2023-11-21T02:00:22;29.35;;;15.32;;
5225;SDS011;2632;51.666;7.146;2023-11-21T02:02:49;34.97;;;16.70;;
5225;SDS011;2632;51.666;7.146;2023-11-21T02:05:17;27.90;;;15.43;;
5225;SDS011;2632;51.666;7.146;2023-11-21T02:07:45;38.73;;;18.17;;
5225;SDS011;2632;51.666;7.146;2023-11-21T02:10:15;33.05;;;16.65;;
5225;SDS011;2632;51.666;7.146;2023-11-21T02:12:43;29.35;;;15.05;;
5225;SDS011;2632;51.666;7.146;2023-11-21T02:15:12;32.47;;;15.60;;
5225;SDS011;2632;51.666;7.146;2023-11-21T02:17:52;23.42;;;13.25;;
5225;SDS011;2632;51.666;7.146;2023-11-21T02:20:20;24.10;;;14.18;;
5225;SDS011;2632;51.666;7.146;2023-11-21T02:22:49;25.80;;;14.70;;
5225;SDS011;2632;51.666;7.146;2023-11-21T02:25:24;26.85;;;14.00;;
5225;SDS011;2632;51.666;7.146;2023-11-21T02:27:54;25.47;;;12.90;;
5225;SDS011;2632;51.666;7.146;2023-11-21T02:30:22;32.53;;;16.48;;
5225;SDS011;2632;51.666;7.146;2023-11-21T02:32:51;31.70;;;15.87;;
5225;SDS011;2632;51.666;7.146;2023-11-21T02:35:22;27.00;;;14.70;;
5225;SDS011;2632;51.666;7.146;2023-11-21T02:37:49;28.63;;;15.82;;
5225;SDS011;2632;51.666;7.146;2023-11-21T02:40:16;31.48;;;15.95;;
5225;SDS011;2632;51.666;7.146;2023-11-21T02:42:51;28.35;;;15.43;;
5225;SDS011;2632;51.666;7.146;2023-11-21T02:45:18;32.45;;;16.52;;
5225;SDS011;2632;51.666;7.146;2023-11-21T02:47:47;33.17;;;17.27;;
5225;SDS011;2632;51.666;7.146;2023-11-21T02:50:15;34.88;;;17.50;;
5225;SDS011;2632;51.666;7.146;2023-11-21T02:52:42;35.10;;;16.77;;
5225;SDS011;2632;51.666;7.146;2023-11-21T02:55:09;29.92;;;16.23;;
5225;SDS011;2632;51.666;7.146;2023-11-21T02:57:36;31.15;;;16.50;;
5225;SDS011;2632;51.666;7.146;2023-11-21T03:00:03;32.20;;;15.88;;
5225;SDS011;2632;51.666;7.146;2023-11-21T03:02:33;27.98;;;15.55;;
5225;SDS011;2632;51.666;7.146;2023-11-21T03:05:05;30.30;;;16.23;;
5225;SDS011;2632;51.666;7.146;2023-11-21T03:07:33;29.60;;;17.13;;
5225;SDS011;2632;51.666;7.146;2023-11-21T03:09:59;30.83;;;17.70;;
5225;SDS011;2632;51.666;7.146;2023-11-21T03:12:26;30.65;;;16.55;;
5225;SDS011;2632;51.666;7.146;2023-11-21T03:14:53;30.85;;;17.23;;
5225;SDS011;2632;51.666;7.146;2023-11-21T03:17:20;32.33;;;17.45;;
5225;SDS011;2632;51.666;7.146;2023-11-21T03:19:47;32.17;;;16.50;;
5225;SDS011;2632;51.666;7.146;2023-11-21T03:22:13;31.15;;;16.80;;
5225;SDS011;2632;51.666;7.146;2023-11-21T03:24:40;29.57;;;15.73;;
5225;SDS011;2632;51.666;7.146;2023-11-21T03:27:07;25.52;;;15.02;;
5225;SDS011;2632;51.666;7.146;2023-11-21T03:29:34;28.63;;;15.70;;
5225;SDS011;2632;51.666;7.146;2023-11-21T03:32:01;28.05;;;15.40;;
5225;SDS011;2632;51.666;7.146;2023-11-21T03:34:28;28.15;;;14.73;;
5225;SDS011;2632;51.666;7.146;2023-11-21T03:36:55;26.42;;;15.10;;
5225;SDS011;2632;51.666;7.146;2023-11-21T03:39:21;26.45;;;13.98;;
5225;SDS011;2632;51.666;7.146;2023-11-21T03:41:49;25.42;;;13.50;;
5225;SDS011;2632;51.666;7.146;2023-11-21T03:44:15;27.17;;;14.00;;
5225;SDS011;2632;51.666;7.146;2023-11-21T03:46:43;27.67;;;14.52;;
5225;SDS011;2632;51.666;7.146;2023-11-21T03:49:10;23.88;;;13.88;;
5225;SDS011;2632;51.666;7.146;2023-11-21T03:51:37;24.88;;;14.38;;
5225;SDS011;2632;51.666;7.146;2023-11-21T03:54:03;25.50;;;14.30;;
5225;SDS011;2632;51.666;7.146;2023-11-21T03:56:30;29.70;;;13.67;;
5225;SDS011;2632;51.666;7.146;2023-11-21T03:58:57;28.80;;;14.25;;
5225;SDS011;2632;51.666;7.146;2023-11-21T04:01:24;26.83;;;14.40;;
5225;SDS011;2632;51.666;7.146;2023-11-21T04:03:51;29.70;;;14.40;;
5225;SDS011;2632;51.666;7.146;2023-11-21T04:06:18;30.55;;;14.48;;
5225;SDS011;2632;51.666;7.146;2023-11-21T04:08:45;30.00;;;14.43;;
5225;SDS011;2632;51.666;7.146;2023-11-21T04:11:12;27.05;;;14.38;;
5225;SDS011;2632;51.666;7.146;2023-11-21T04:13:39;36.58;;;14.52;;
5225;SDS011;2632;51.666;7.146;2023-11-21T04:16:07;29.10;;;14.57;;
5225;SDS011;2632;51.666;7.146;2023-11-21T04:18:35;24.73;;;13.45;;
5225;SDS011;2632;51.666;7.146;2023-11-21T04:21:03;27.98;;;13.75;;
5225;SDS011;2632;51.666;7.146;2023-11-21T04:23:34;26.33;;;14.43;;
5225;SDS011;2632;51.666;7.146;2023-11-21T04:26:01;24.67;;;13.77;;
5225;SDS011;2632;51.666;7.146;2023-11-21T04:28:28;26.38;;;14.30;;
5225;SDS011;2632;51.666;7.146;2023-11-21T04:30:55;26.55;;;13.88;;
5225;SDS011;2632;51.666;7.146;2023-11-21T04:33:22;26.58;;;14.20;;
5225;SDS011;2632;51.666;7.146;2023-11-21T04:35:49;26.63;;;14.40;;
5225;SDS011;2632;51.666;7.146;2023-11-21T04:38:16;30.17;;;16.27;;
5225;SDS011;2632;51.666;7.146;2023-11-21T04:40:43;36.17;;;18.75;;
5225;SDS011;2632;51.666;7.146;2023-11-21T04:43:10;33.80;;;17.65;;
5225;SDS011;2632;51.666;7.146;2023-11-21T04:45:36;36.85;;;18.25;;
5225;SDS011;2632;51.666;7.146;2023-11-21T04:48:03;31.10;;;17.63;;
5225;SDS011;2632;51.666;7.146;2023-11-21T04:50:30;33.63;;;17.83;;
5225;SDS011;2632;51.666;7.146;2023-11-21T04:52:57;31.42;;;17.50;;
5225;SDS011;2632;51.666;7.146;2023-11-21T04:55:24;30.33;;;16.87;;
5225;SDS011;2632;51.666;7.146;2023-11-21T04:57:54;29.17;;;16.02;;
5225;SDS011;2632;51.666;7.146;2023-11-21T05:00:21;28.80;;;16.25;;
5225;SDS011;2632;51.666;7.146;2023-11-21T05:02:48;30.33;;;16.20;;
5225;SDS011;2632;51.666;7.146;2023-11-21T05:05:15;34.53;;;16.25;;
5225;SDS011;2632;51.666;7.146;2023-11-21T05:07:41;28.23;;;15.07;;
5225;SDS011;2632;51.666;7.146;2023-11-21T05:10:09;27.95;;;15.40;;
5225;SDS011;2632;51.666;7.146;2023-11-21T05:12:39;30.38;;;14.80;;
5225;SDS011;2632;51.666;7.146;2023-11-21T05:15:07;28.05;;;15.15;;
5225;SDS011;2632;51.666;7.146;2023-11-21T05:17:38;32.20;;;16.33;;
5225;SDS011;2632;51.666;7.146;2023-11-21T05:20:09;26.88;;;14.90;;
5225;SDS011;2632;51.666;7.146;2023-11-21T05:22:37;32.05;;;15.80;;
5225;SDS011;2632;51.666;7.146;2023-11-21T05:25:04;31.45;;;16.02;;
5225;SDS011;2632;51.666;7.146;2023-11-21T05:27:33;28.95;;;16.40;;
5225;SDS011;2632;51.666;7.146;2023-11-21T05:30:04;34.03;;;17.30;;
5225;SDS011;2632;51.666;7.146;2023-11-21T05:32:34;37.08;;;18.42;;
5225;SDS011;2632;51.666;7.146;2023-11-21T05:35:01;32.78;;;18.80;;
5225;SDS011;2632;51.666;7.146;2023-11-21T05:37:28;31.75;;;17.27;;
5225;SDS011;2632;51.666;7.146;2023-11-21T05:39:55;33.85;;;18.80;;
5225;SDS011;2632;51.666;7.146;2023-11-21T05:42:22;36.15;;;17.73;;
5225;SDS011;2632;51.666;7.146;2023-11-21T05:44:49;36.38;;;18.83;;
5225;SDS011;2632;51.666;7.146;2023-11-21T05:47:16;33.80;;;18.20;;
5225;SDS011;2632;51.666;7.146;2023-11-21T05:49:44;35.58;;;17.60;;
5225;SDS011;2632;51.666;7.146;2023-11-21T05:52:12;35.65;;;17.95;;
5225;SDS011;2632;51.666;7.146;2023-11-21T05:54:38;32.83;;;17.90;;
5225;SDS011;2632;51.666;7.146;2023-11-21T05:57:05;32.95;;;18.20;;
5225;SDS011;2632;51.666;7.146;2023-11-21T05:59:32;36.88;;;18.75;;
5225;SDS011;2632;51.666;7.146;2023-11-21T06:01:58;43.67;;;20.95;;
5225;SDS011;2632;51.666;7.146;2023-11-21T06:04:25;45.20;;;20.30;;
5225;SDS011;2632;51.666;7.146;2023-11-21T06:06:52;36.30;;;18.65;;
5225;SDS011;2632;51.666;7.146;2023-11-21T06:09:20;40.60;;;19.55;;
5225;SDS011;2632;51.666;7.146;2023-11-21T06:11:47;48.37;;;22.10;;
5225;SDS011;2632;51.666;7.146;2023-11-21T06:14:13;40.88;;;21.20;;
5225;SDS011;2632;51.666;7.146;2023-11-21T06:16:44;40.80;;;20.33;;
5225;SDS011;2632;51.666;7.146;2023-11-21T06:19:11;40.15;;;20.08;;
5225;SDS011;2632;51.666;7.146;2023-11-21T06:21:38;40.75;;;20.20;;
5225;SDS011;2632;51.666;7.146;2023-11-21T06:24:05;42.38;;;20.70;;
5225;SDS011;2632;51.666;7.146;2023-11-21T06:26:33;37.03;;;19.55;;
5225;SDS011;2632;51.666;7.146;2023-11-21T06:29:00;32.22;;;19.20;;
5225;SDS011;2632;51.666;7.146;2023-11-21T06:31:29;36.95;;;18.80;;
5225;SDS011;2632;51.666;7.146;2023-11-21T06:33:56;39.72;;;20.65;;
5225;SDS011;2632;51.666;7.146;2023-11-21T06:36:25;39.50;;;20.35;;
5225;SDS011;2632;51.666;7.146;2023-11-21T06:38:52;41.13;;;20.20;;
5225;SDS011;2632;51.666;7.146;2023-11-21T06:41:19;34.07;;;19.33;;
5225;SDS011;2632;51.666;7.146;2023-11-21T06:43:46;42.72;;;20.40;;
5225;SDS011;2632;51.666;7.146;2023-11-21T06:46:14;44.33;;;22.00;;
5225;SDS011;2632;51.666;7.146;2023-11-21T06:48:43;44.17;;;21.33;;
5225;SDS011;2632;51.666;7.146;2023-11-21T06:51:10;43.88;;;22.75;;
5225;SDS011;2632;51.666;7.146;2023-11-21T06:53:37;43.95;;;22.30;;
5225;SDS011;2632;51.666;7.146;2023-11-21T06:56:04;40.90;;;21.65;;
5225;SDS011;2632;51.666;7.146;2023-11-21T06:58:41;42.15;;;20.80;;
5225;SDS011;2632;51.666;7.146;2023-11-21T07:01:08;42.92;;;21.40;;
5225;SDS011;2632;51.666;7.146;2023-11-21T07:03:34;49.55;;;25.67;;
5225;SDS011;2632;51.666;7.146;2023-11-21T07:06:03;59.53;;;28.25;;
5225;SDS011;2632;51.666;7.146;2023-11-21T07:08:30;68.40;;;29.90;;
5225;SDS011;2632;51.666;7.146;2023-11-21T07:10:57;68.70;;;29.70;;
5225;SDS011;2632;51.666;7.146;2023-11-21T07:13:24;74.75;;;31.85;;
5225;SDS011;2632;51.666;7.146;2023-11-21T07:15:51;74.53;;;32.30;;
5225;SDS011;2632;51.666;7.146;2023-11-21T07:18:20;75.77;;;32.53;;
5225;SDS011;2632;51.666;7.146;2023-11-21T07:20:47;81.32;;;34.30;;
5225;SDS011;2632;51.666;7.146;2023-11-21T07:23:14;85.68;;;35.65;;
5225;SDS011;2632;51.666;7.146;2023-11-21T07:25:41;86.95;;;35.25;;
5225;SDS011;2632;51.666;7.146;2023-11-21T07:28:09;89.20;;;35.42;;
5225;SDS011;2632;51.666;7.146;2023-11-21T07:30:36;77.68;;;34.78;;
5225;SDS011;2632;51.666;7.146;2023-11-21T07:33:03;78.00;;;34.60;;
5225;SDS011;2632;51.666;7.146;2023-11-21T07:35:30;76.38;;;33.65;;
5225;SDS011;2632;51.666;7.146;2023-11-21T07:37:57;85.90;;;34.60;;
5225;SDS011;2632;51.666;7.146;2023-11-21T07:40:24;83.70;;;34.85;;
5225;SDS011;2632;51.666;7.146;2023-11-21T07:42:51;87.22;;;35.60;;
5225;SDS011;2632;51.666;7.146;2023-11-21T07:45:17;82.00;;;35.42;;
5225;SDS011;2632;51.666;7.146;2023-11-21T07:47:44;81.68;;;34.38;;
5225;SDS011;2632;51.666;7.146;2023-11-21T07:50:11;90.70;;;35.92;;
5225;SDS011;2632;51.666;7.146;2023-11-21T07:52:39;83.93;;;35.17;;
5225;SDS011;2632;51.666;7.146;2023-11-21T07:55:06;84.32;;;34.90;;
5225;SDS011;2632;51.666;7.146;2023-11-21T07:57:33;88.37;;;35.67;;
5225;SDS011;2632;51.666;7.146;2023-11-21T08:00:00;70.25;;;32.65;;
5225;SDS011;2632;51.666;7.146;2023-11-21T08:02:27;73.03;;;32.72;;
5225;SDS011;2632;51.666;7.146;2023-11-21T08:04:54;69.28;;;32.13;;
5225;SDS011;2632;51.666;7.146;2023-11-21T08:07:22;83.95;;;34.05;;
5225;SDS011;2632;51.666;7.146;2023-11-21T08:09:49;73.17;;;32.30;;
5225;SDS011;2632;51.666;7.146;2023-11-21T08:12:16;69.57;;;31.10;;
5225;SDS011;2632;51.666;7.146;2023-11-21T08:14:43;69.85;;;31.52;;
5225;SDS011;2632;51.666;7.146;2023-11-21T08:17:10;72.90;;;31.95;;
5225;SDS011;2632;51.666;7.146;2023-11-21T08:19:39;64.70;;;30.80;;
5225;SDS011;2632;51.666;7.146;2023-11-21T08:22:06;67.97;;;31.17;;
5225;SDS011;2632;51.666;7.146;2023-11-21T08:24:34;71.88;;;31.95;;
5225;SDS011;2632;51.666;7.146;2023-11-21T08:27:00;66.10;;;31.30;;
5225;SDS011;2632;51.666;7.146;2023-11-21T08:29:27;73.78;;;31.75;;
5225;SDS011;2632;51.666;7.146;2023-11-21T08:31:54;70.47;;;31.67;;
5225;SDS011;2632;51.666;7.146;2023-11-21T08:34:20;68.75;;;31.88;;
5225;SDS011;2632;51.666;7.146;2023-11-21T08:36:47;68.50;;;32.47;;
5225;SDS011;2632;51.666;7.146;2023-11-21T08:39:14;66.75;;;30.92;;
5225;SDS011;2632;51.666;7.146;2023-11-21T08:41:42;73.35;;;32.20;;
5225;SDS011;2632;51.666;7.146;2023-11-21T08:44:09;70.07;;;31.20;;
5225;SDS011;2632;51.666;7.146;2023-11-21T08:46:35;74.50;;;32.55;;
5225;SDS011;2632;51.666;7.146;2023-11-21T08:49:04;72.07;;;33.47;;
5225;SDS011;2632;51.666;7.146;2023-11-21T08:51:30;75.03;;;33.17;;
5225;SDS011;2632;51.666;7.146;2023-11-21T08:53:57;75.53;;;32.90;;
5225;SDS011;2632;51.666;7.146;2023-11-21T08:56:26;78.60;;;34.17;;
5225;SDS011;2632;51.666;7.146;2023-11-21T08:58:53;83.18;;;35.08;;
5225;SDS011;2632;51.666;7.146;2023-11-21T09:01:20;73.43;;;33.45;;
5225;SDS011;2632;51.666;7.146;2023-11-21T09:03:47;69.22;;;31.20;;
5225;SDS011;2632;51.666;7.146;2023-11-21T09:06:16;70.85;;;31.10;;
5225;SDS011;2632;51.666;7.146;2023-11-21T09:08:43;69.35;;;31.42;;
5225;SDS011;2632;51.666;7.146;2023-11-21T09:11:09;66.33;;;32.27;;
5225;SDS011;2632;51.666;7.146;2023-11-21T09:13:36;65.30;;;31.75;;
5225;SDS011;2632;51.666;7.146;2023-11-21T09:16:03;69.22;;;33.30;;
5225;SDS011;2632;51.666;7.146;2023-11-21T09:18:32;76.07;;;33.13;;
5225;SDS011;2632;51.666;7.146;2023-11-21T09:20:58;71.57;;;32.90;;
5225;SDS011;2632;51.666;7.146;2023-11-21T09:23:27;72.50;;;33.67;;
5225;SDS011;2632;51.666;7.146;2023-11-21T09:25:54;73.47;;;34.30;;
5225;SDS011;2632;51.666;7.146;2023-11-21T09:28:23;70.22;;;33.17;;
5225;SDS011;2632;51.666;7.146;2023-11-21T09:30:50;65.60;;;32.80;;
5225;SDS011;2632;51.666;7.146;2023-11-21T09:33:16;70.10;;;33.17;;
5225;SDS011;2632;51.666;7.146;2023-11-21T09:35:43;77.32;;;34.58;;
5225;SDS011;2632;51.666;7.146;2023-11-21T09:38:10;67.47;;;33.70;;
5225;SDS011;2632;51.666;7.146;2023-11-21T09:40:37;65.82;;;32.75;;
5225;SDS011;2632;51.666;7.146;2023-11-21T09:43:17;70.28;;;35.30;;
5225;SDS011;2632;51.666;7.146;2023-11-21T09:45:48;71.95;;;34.70;;
5225;SDS011;2632;51.666;7.146;2023-11-21T09:48:23;65.03;;;30.92;;
5225;SDS011;2632;51.666;7.146;2023-11-21T09:50:51;62.55;;;31.35;;
5225;SDS011;2632;51.666;7.146;2023-11-21T09:53:21;59.72;;;30.60;;
5225;SDS011;2632;51.666;7.146;2023-11-21T09:55:51;64.13;;;31.95;;
5225;SDS011;2632;51.666;7.146;2023-11-21T09:58:19;63.20;;;30.63;;
5225;SDS011;2632;51.666;7.146;2023-11-21T10:00:48;68.00;;;31.50;;
5225;SDS011;2632;51.666;7.146;2023-11-21T10:03:18;62.67;;;30.30;;
5225;SDS011;2632;51.666;7.146;2023-11-21T10:05:45;64.85;;;31.65;;
5225;SDS011;2632;51.666;7.146;2023-11-21T10:08:14;61.05;;;30.50;;
5225;SDS011;2632;51.666;7.146;2023-11-21T10:10:44;62.28;;;31.63;;
5225;SDS011;2632;51.666;7.146;2023-11-21T10:13:14;61.80;;;32.85;;
5225;SDS011;2632;51.666;7.146;2023-11-21T10:15:44;70.70;;;32.40;;
5225;SDS011;2632;51.666;7.146;2023-11-21T10:18:16;65.55;;;32.75;;
5225;SDS011;2632;51.666;7.146;2023-11-21T10:20:44;63.22;;;32.30;;
5225;SDS011;2632;51.666;7.146;2023-11-21T10:23:18;58.33;;;31.73;;
5225;SDS011;2632;51.666;7.146;2023-11-21T10:25:45;56.28;;;29.70;;
5225;SDS011;2632;51.666;7.146;2023-11-21T10:28:12;54.47;;;29.25;;
5225;SDS011;2632;51.666;7.146;2023-11-21T10:30:39;56.30;;;30.50;;
5225;SDS011;2632;51.666;7.146;2023-11-21T10:33:06;53.45;;;30.20;;
5225;SDS011;2632;51.666;7.146;2023-11-21T10:35:43;59.28;;;31.17;;
5225;SDS011;2632;51.666;7.146;2023-11-21T10:38:13;48.97;;;27.13;;
5225;SDS011;2632;51.666;7.146;2023-11-21T10:40:40;43.63;;;23.80;;
5225;SDS011;2632;51.666;7.146;2023-11-21T10:43:09;41.88;;;23.88;;
5225;SDS011;2632;51.666;7.146;2023-11-21T10:45:37;35.95;;;21.17;;
5225;SDS011;2632;51.666;7.146;2023-11-21T10:48:05;42.25;;;23.45;;
5225;SDS011;2632;51.666;7.146;2023-11-21T10:50:35;34.80;;;20.77;;
5225;SDS011;2632;51.666;7.146;2023-11-21T10:53:04;34.05;;;21.50;;
5225;SDS011;2632;51.666;7.146;2023-11-21T10:55:34;34.88;;;21.10;;
5225;SDS011;2632;51.666;7.146;2023-11-21T10:58:02;34.55;;;20.83;;
5225;SDS011;2632;51.666;7.146;2023-11-21T11:00:31;37.83;;;21.77;;
5225;SDS011;2632;51.666;7.146;2023-11-21T11:02:59;37.85;;;22.35;;
5225;SDS011;2632;51.666;7.146;2023-11-21T11:05:27;38.73;;;22.00;;
5225;SDS011;2632;51.666;7.146;2023-11-21T11:07:57;42.47;;;22.77;;
5225;SDS011;2632;51.666;7.146;2023-11-21T11:10:30;34.90;;;21.52;;
5225;SDS011;2632;51.666;7.146;2023-11-21T11:12:57;36.90;;;21.90;;
5225;SDS011;2632;51.666;7.146;2023-11-21T11:15:25;39.42;;;21.85;;
5225;SDS011;2632;51.666;7.146;2023-11-21T11:17:53;35.13;;;20.90;;
5225;SDS011;2632;51.666;7.146;2023-11-21T11:20:27;37.28;;;21.15;;
5225;SDS011;2632;51.666;7.146;2023-11-21T11:28:46;36.85;;;21.02;;
5225;SDS011;2632;51.666;7.146;2023-11-21T11:31:27;38.40;;;21.52;;
5225;SDS011;2632;51.666;7.146;2023-11-21T11:37:06;36.42;;;21.42;;
5225;SDS011;2632;51.666;7.146;2023-11-21T11:39:37;36.15;;;21.05;;
5225;SDS011;2632;51.666;7.146;2023-11-21T11:42:06;39.17;;;21.00;;
5225;SDS011;2632;51.666;7.146;2023-11-21T11:47:13;34.60;;;19.55;;
5225;SDS011;2632;51.666;7.146;2023-11-21T11:50:04;39.70;;;21.58;;
5225;SDS011;2632;51.666;7.146;2023-11-21T11:52:46;36.30;;;19.67;;
5225;SDS011;2632;51.666;7.146;2023-11-21T11:55:17;35.00;;;20.75;;
5225;SDS011;2632;51.666;7.146;2023-11-21T11:57:45;39.03;;;19.63;;
5225;SDS011;2632;51.666;7.146;2023-11-21T12:00:17;36.58;;;20.23;;
5225;SDS011;2632;51.666;7.146;2023-11-21T12:02:52;35.10;;;20.00;;
5225;SDS011;2632;51.666;7.146;2023-11-21T12:05:21;38.25;;;20.65;;
5225;SDS011;2632;51.666;7.146;2023-11-21T12:07:50;36.47;;;20.17;;
5225;SDS011;2632;51.666;7.146;2023-11-21T12:10:22;35.65;;;19.05;;
5225;SDS011;2632;51.666;7.146;2023-11-21T12:12:54;28.83;;;16.00;;
5225;SDS011;2632;51.666;7.146;2023-11-21T12:15:22;27.58;;;15.63;;
5225;SDS011;2632;51.666;7.146;2023-11-21T12:17:50;31.02;;;17.40;;
5225;SDS011;2632;51.666;7.146;2023-11-21T12:20:21;26.77;;;15.65;;
5225;SDS011;2632;51.666;7.146;2023-11-21T12:22:53;25.83;;;15.17;;
5225;SDS011;2632;51.666;7.146;2023-11-21T12:25:21;25.45;;;15.13;;
5225;SDS011;2632;51.666;7.146;2023-11-21T12:27:50;30.47;;;15.60;;
5225;SDS011;2632;51.666;7.146;2023-11-21T12:30:18;28.80;;;15.15;;
5225;SDS011;2632;51.666;7.146;2023-11-21T12:32:51;30.67;;;16.40;;
5225;SDS011;2632;51.666;7.146;2023-11-21T12:35:21;28.88;;;16.23;;
5225;SDS011;2632;51.666;7.146;2023-11-21T12:37:51;29.80;;;16.67;;
5225;SDS011;2632;51.666;7.146;2023-11-21T12:40:18;30.52;;;15.80;;
5225;SDS011;2632;51.666;7.146;2023-11-21T12:42:45;27.58;;;15.82;;
5225;SDS011;2632;51.666;7.146;2023-11-21T12:47:47;29.20;;;16.30;;
5225;SDS011;2632;51.666;7.146;2023-11-21T12:50:20;28.20;;;15.70;;
5225;SDS011;2632;51.666;7.146;2023-11-21T12:52:52;28.77;;;15.93;;
5225;SDS011;2632;51.666;7.146;2023-11-21T12:55:20;27.07;;;14.90;;
5225;SDS011;2632;51.666;7.146;2023-11-21T12:57:51;29.42;;;15.90;;
5225;SDS011;2632;51.666;7.146;2023-11-21T13:00:33;27.50;;;15.63;;
5225;SDS011;2632;51.666;7.146;2023-11-21T13:03:04;29.63;;;15.68;;
5225;SDS011;2632;51.666;7.146;2023-11-21T13:05:34;28.42;;;15.00;;
5225;SDS011;2632;51.666;7.146;2023-11-21T13:08:05;29.20;;;14.93;;
5225;SDS011;2632;51.666;7.146;2023-11-21T13:10:35;31.00;;;14.95;;
5225;SDS011;2632;51.666;7.146;2023-11-21T13:13:04;26.95;;;14.32;;
5225;SDS011;2632;51.666;7.146;2023-11-21T13:15:35;28.23;;;14.80;;
5225;SDS011;2632;51.666;7.146;2023-11-21T13:18:06;27.55;;;14.23;;
5225;SDS011;2632;51.666;7.146;2023-11-21T13:20:33;25.73;;;13.63;;
5225;SDS011;2632;51.666;7.146;2023-11-21T13:23:06;27.97;;;14.20;;
5225;SDS011;2632;51.666;7.146;2023-11-21T13:25:34;27.13;;;13.93;;
5225;SDS011;2632;51.666;7.146;2023-11-21T13:28:03;26.95;;;13.55;;
5225;SDS011;2632;51.666;7.146;2023-11-21T13:30:30;25.23;;;13.07;;
5225;SDS011;2632;51.666;7.146;2023-11-21T13:33:03;22.95;;;12.15;;
5225;SDS011;2632;51.666;7.146;2023-11-21T13:35:34;21.70;;;11.68;;
5225;SDS011;2632;51.666;7.146;2023-11-21T13:38:14;22.90;;;11.98;;
5225;SDS011;2632;51.666;7.146;2023-11-21T13:40:47;21.98;;;12.13;;
5225;SDS011;2632;51.666;7.146;2023-11-21T13:43:16;21.45;;;11.77;;
5225;SDS011;2632;51.666;7.146;2023-11-21T13:45:47;20.45;;;11.73;;
5225;SDS011;2632;51.666;7.146;2023-11-21T13:48:24;24.23;;;11.37;;
5225;SDS011;2632;51.666;7.146;2023-11-21T13:50:57;20.67;;;10.55;;
5225;SDS011;2632;51.666;7.146;2023-11-21T13:53:27;19.58;;;10.45;;
5225;SDS011;2632;51.666;7.146;2023-11-21T13:55:54;17.88;;;9.93;;
5225;SDS011;2632;51.666;7.146;2023-11-21T13:58:22;19.50;;;10.37;;
5225;SDS011;2632;51.666;7.146;2023-11-21T14:00:52;18.13;;;10.40;;
5225;SDS011;2632;51.666;7.146;2023-11-21T14:03:23;20.23;;;10.10;;
5225;SDS011;2632;51.666;7.146;2023-11-21T14:05:51;18.85;;;9.93;;
5225;SDS011;2632;51.666;7.146;2023-11-21T14:08:19;19.00;;;10.80;;
5225;SDS011;2632;51.666;7.146;2023-11-21T14:10:47;17.40;;;9.82;;
5225;SDS011;2632;51.666;7.146;2023-11-21T14:13:23;19.80;;;9.30;;
5225;SDS011;2632;51.666;7.146;2023-11-21T14:15:50;19.15;;;10.13;;
5225;SDS011;2632;51.666;7.146;2023-11-21T14:18:23;17.97;;;9.10;;
5225;SDS011;2632;51.666;7.146;2023-11-21T14:21:02;14.73;;;8.40;;
5225;SDS011;2632;51.666;7.146;2023-11-21T14:23:28;14.93;;;8.45;;
5225;SDS011;2632;51.666;7.146;2023-11-21T14:25:56;14.57;;;8.02;;
5225;SDS011;2632;51.666;7.146;2023-11-21T14:28:23;13.27;;;7.90;;
5225;SDS011;2632;51.666;7.146;2023-11-21T14:30:49;12.68;;;7.80;;
5225;SDS011;2632;51.666;7.146;2023-11-21T14:33:17;11.60;;;6.97;;
5225;SDS011;2632;51.666;7.146;2023-11-21T14:35:44;10.13;;;6.63;;
5225;SDS011;2632;51.666;7.146;2023-11-21T14:38:11;13.25;;;7.65;;
5225;SDS011;2632;51.666;7.146;2023-11-21T14:40:40;11.10;;;6.82;;
5225;SDS011;2632;51.666;7.146;2023-11-21T14:43:07;10.63;;;6.90;;
5225;SDS011;2632;51.666;7.146;2023-11-21T14:45:34;10.98;;;6.30;;
5225;SDS011;2632;51.666;7.146;2023-11-21T14:48:01;12.65;;;6.70;;
5225;SDS011;2632;51.666;7.146;2023-11-21T14:50:30;9.00;;;6.60;;
5225;SDS011;2632;51.666;7.146;2023-11-21T14:53:10;10.57;;;6.70;;
5225;SDS011;2632;51.666;7.146;2023-11-21T14:55:39;11.70;;;7.20;;
5225;SDS011;2632;51.666;7.146;2023-11-21T14:58:18;11.20;;;7.63;;
5225;SDS011;2632;51.666;7.146;2023-11-21T15:00:58;12.32;;;8.05;;
5225;SDS011;2632;51.666;7.146;2023-11-21T15:03:26;13.45;;;8.13;;
5225;SDS011;2632;51.666;7.146;2023-11-21T15:06:00;13.68;;;8.70;;
5225;SDS011;2632;51.666;7.146;2023-11-21T15:09:05;15.40;;;9.20;;
5225;SDS011;2632;51.666;7.146;2023-11-21T15:11:35;13.15;;;8.82;;